createdAt,value
2023-04-05T00:00:47.756Z,29.91
2023-04-05T00:03:17.969Z,29.36
2023-04-05T00:05:45.963Z,29.37
2023-04-05T00:08:23.366Z,29.79
2023-04-05T00:10:51.127Z,31.08
2023-04-05T00:13:18.572Z,29.67
2023-04-05T00:15:46.033Z,29.93
2023-04-05T00:18:21.678Z,30.00
2023-04-05T00:20:50.432Z,29.97
2023-04-05T00:23:18.072Z,29.93
2023-04-05T00:25:45.453Z,30.46
2023-04-05T00:28:13.377Z,30.18
2023-04-05T00:30:42.172Z,30.20
2023-04-05T00:33:09.915Z,30.69
2023-04-05T00:35:37.461Z,30.82
2023-04-05T00:38:05.159Z,30.77
2023-04-05T00:40:32.535Z,30.84
2023-04-05T00:42:59.978Z,30.77
2023-04-05T00:45:27.699Z,30.79
2023-04-05T00:47:55.270Z,31.26
2023-04-05T00:50:23.328Z,32.57
2023-04-05T00:52:51.341Z,32.18
2023-04-05T00:55:19.142Z,31.99
2023-04-05T00:57:46.582Z,32.30
2023-04-05T01:00:15.222Z,32.52
2023-04-05T01:02:49.835Z,32.10
2023-04-05T01:05:26.118Z,31.87
2023-04-05T01:08:03.589Z,31.91
2023-04-05T01:10:36.555Z,32.22
2023-04-05T01:13:04.306Z,32.55
2023-04-05T01:15:32.577Z,32.24
2023-04-05T01:18:02.179Z,32.28
2023-04-05T01:20:34.191Z,31.98
2023-04-05T01:23:25.050Z,31.84
2023-04-05T01:25:52.978Z,32.11
2023-04-05T01:29:03.637Z,33.22
2023-04-05T01:31:38.001Z,32.40
2023-04-05T01:34:13.812Z,32.39
2023-04-05T01:36:44.074Z,32.46
2023-04-05T01:39:14.482Z,32.50
2023-04-05T01:41:41.926Z,32.68
2023-04-05T01:44:09.433Z,32.92
2023-04-05T01:46:37.347Z,32.77
2023-04-05T01:49:05.321Z,32.88
2023-04-05T01:51:33.361Z,33.23
2023-04-05T01:54:01.158Z,33.56
2023-04-05T01:56:28.562Z,33.96
2023-04-05T01:58:57.203Z,33.95
2023-04-05T02:01:25.375Z,33.83
2023-04-05T02:03:53.323Z,34.48
2023-04-05T02:06:20.832Z,34.22
2023-04-05T02:08:48.217Z,33.77
2023-04-05T02:11:17.700Z,33.68
2023-04-05T02:13:45.359Z,33.40
2023-04-05T02:16:13.621Z,33.54
2023-04-05T02:18:41.473Z,33.51
2023-04-05T02:21:10.738Z,33.84
2023-04-05T02:23:38.483Z,33.56
2023-04-05T02:26:05.999Z,33.54
2023-04-05T02:28:33.539Z,33.48
2023-04-05T02:31:01.175Z,33.79
2023-04-05T02:33:29.397Z,32.99
2023-04-05T02:35:57.023Z,33.47
2023-04-05T02:38:24.828Z,32.98
2023-04-05T02:40:52.236Z,33.86
2023-04-05T02:43:19.644Z,33.20
2023-04-05T02:45:47.381Z,33.42
2023-04-05T02:48:15.238Z,33.55
2023-04-05T02:50:47.886Z,33.45
2023-04-05T02:53:16.189Z,33.78
2023-04-05T02:55:44.367Z,34.04
2023-04-05T02:58:11.749Z,34.19
2023-04-05T03:00:40.904Z,34.42
2023-04-05T03:03:08.811Z,34.31
2023-04-05T03:05:38.439Z,35.08
2023-04-05T03:08:06.818Z,34.46
2023-04-05T03:10:36.658Z,34.51
2023-04-05T03:13:04.977Z,35.27
2023-04-05T03:15:33.310Z,34.53
2023-04-05T03:18:02.437Z,34.76
2023-04-05T03:20:30.138Z,34.47
2023-04-05T03:22:58.554Z,34.37
2023-04-05T03:25:28.730Z,34.56
2023-04-05T03:27:57.999Z,34.04
2023-04-05T03:30:26.471Z,34.40
2023-04-05T03:32:54.290Z,35.06
2023-04-05T03:35:23.021Z,35.86
2023-04-05T03:37:50.768Z,34.62
2023-04-05T03:40:18.482Z,34.43
2023-04-05T03:42:46.497Z,34.47
2023-04-05T03:45:14.637Z,35.48
2023-04-05T03:47:42.633Z,36.76
2023-04-05T03:50:10.637Z,35.25
2023-04-05T03:52:38.350Z,35.11
2023-04-05T03:55:06.648Z,39.83
2023-04-05T03:57:34.379Z,36.12
2023-04-05T04:00:14.093Z,36.86
2023-04-05T04:02:49.106Z,35.80
2023-04-05T04:05:17.910Z,36.09
2023-04-05T04:07:47.270Z,35.90
2023-04-05T04:10:17.779Z,35.64
2023-04-05T04:12:46.895Z,35.74
2023-04-05T04:15:14.528Z,36.77
2023-04-05T04:17:42.352Z,35.37
2023-04-05T04:20:12.443Z,35.69
2023-04-05T04:22:40.862Z,35.19
2023-04-05T04:25:10.606Z,36.79
2023-04-05T04:27:43.957Z,36.01
2023-04-05T04:30:13.560Z,35.34
2023-04-05T04:32:55.511Z,34.95
2023-04-05T04:35:29.112Z,35.08
2023-04-05T04:38:05.557Z,37.29
2023-04-05T04:40:40.540Z,34.60
2023-04-05T04:43:18.965Z,37.11
2023-04-05T04:45:48.361Z,34.82
2023-04-05T04:48:18.527Z,35.22
2023-04-05T04:50:47.317Z,35.05
2023-04-05T04:53:17.477Z,34.12
2023-04-05T04:55:45.424Z,37.54
2023-04-05T04:58:13.704Z,35.04
2023-04-05T05:00:44.456Z,36.19
2023-04-05T05:03:13.454Z,35.13
2023-04-05T05:05:48.793Z,34.20
2023-04-05T05:08:20.586Z,35.19
2023-04-05T05:10:55.305Z,35.00
2023-04-05T05:13:22.992Z,35.03
2023-04-05T05:15:50.579Z,35.88
2023-04-05T05:18:17.993Z,34.90
2023-04-05T05:20:45.867Z,33.84
2023-04-05T05:23:13.216Z,33.71
2023-04-05T05:25:41.017Z,32.63
2023-04-05T05:28:08.672Z,32.54
2023-04-05T05:30:36.192Z,31.98
2023-04-05T05:33:04.408Z,30.25
2023-04-05T05:35:32.067Z,30.41
2023-04-05T05:37:59.444Z,31.10
2023-04-05T05:40:27.152Z,32.90
2023-04-05T05:42:54.833Z,31.92
2023-04-05T05:45:22.203Z,30.97
2023-04-05T05:47:49.706Z,31.12
2023-04-05T05:50:17.590Z,32.23
2023-04-05T05:52:44.968Z,33.17
2023-04-05T05:55:12.392Z,35.16
2023-04-05T05:57:40.465Z,34.49
2023-04-05T06:00:11.411Z,32.81
2023-04-05T06:02:39.115Z,31.69
2023-04-05T06:05:07.213Z,32.28
2023-04-05T06:07:38.126Z,32.58
2023-04-05T06:10:06.284Z,32.25
2023-04-05T06:12:34.170Z,31.62
2023-04-05T06:15:02.503Z,33.84
2023-04-05T06:17:29.914Z,33.57
2023-04-05T06:19:57.627Z,32.98
2023-04-05T06:22:25.119Z,32.13
2023-04-05T06:24:52.516Z,32.83
2023-04-05T06:27:20.327Z,33.04
2023-04-05T06:29:47.742Z,34.38
2023-04-05T06:32:15.447Z,30.88
2023-04-05T06:34:43.134Z,32.75
2023-04-05T06:37:10.962Z,31.17
2023-04-05T06:39:38.356Z,31.17
2023-04-05T06:42:06.226Z,31.24
2023-04-05T06:44:38.045Z,31.37
2023-04-05T06:47:05.765Z,31.36
2023-04-05T06:49:33.417Z,30.88
2023-04-05T06:52:01.685Z,30.01
2023-04-05T06:54:29.340Z,31.98
2023-04-05T06:56:57.401Z,33.04
2023-04-05T06:59:25.542Z,32.61
2023-04-05T07:01:53.230Z,30.80
2023-04-05T07:04:20.650Z,32.98
2023-04-05T07:06:48.123Z,30.35
2023-04-05T07:09:16.022Z,31.33
2023-04-05T07:11:43.449Z,30.93
2023-04-05T07:14:10.939Z,31.18
2023-04-05T07:16:38.630Z,30.24
2023-04-05T07:19:06.239Z,30.90
2023-04-05T07:21:33.627Z,31.55
2023-04-05T07:24:03.263Z,29.45
2023-04-05T07:26:30.773Z,30.71
2023-04-05T07:28:58.156Z,29.44
2023-04-05T07:31:25.869Z,29.63
2023-04-05T07:33:53.303Z,31.21
2023-04-05T07:36:21.013Z,28.36
2023-04-05T07:38:48.713Z,30.08
2023-04-05T07:41:18.638Z,29.81
2023-04-05T07:43:46.705Z,28.38
2023-04-05T07:46:14.497Z,27.90
2023-04-05T07:48:41.995Z,30.42
2023-04-05T07:51:10.166Z,29.14
2023-04-05T07:53:37.916Z,29.23
2023-04-05T07:56:06.816Z,27.76
2023-04-05T07:58:35.271Z,27.37
2023-04-05T08:01:04.023Z,28.30
2023-04-05T08:03:32.608Z,27.84
2023-04-05T08:05:59.985Z,28.63
2023-04-05T08:08:27.361Z,27.87
2023-04-05T08:10:55.632Z,26.62
2023-04-05T08:13:22.992Z,25.41
2023-04-05T08:15:50.637Z,25.98
2023-04-05T08:18:19.272Z,27.60
2023-04-05T08:20:51.385Z,25.16
2023-04-05T08:23:19.114Z,24.55
2023-04-05T08:25:46.536Z,23.81
2023-04-05T08:28:14.012Z,24.19
2023-04-05T08:30:42.531Z,24.46
2023-04-05T08:33:10.198Z,22.70
2023-04-05T08:35:37.943Z,22.36
2023-04-05T08:38:07.210Z,23.17
2023-04-05T08:40:41.121Z,26.24
2023-04-05T08:43:31.572Z,24.04
2023-04-05T08:45:59.674Z,23.76
2023-04-05T08:48:31.269Z,24.84
2023-04-05T08:50:58.679Z,25.36
2023-04-05T08:53:26.532Z,23.86
2023-04-05T08:55:57.596Z,25.68
2023-04-05T08:58:25.637Z,23.51
2023-04-05T09:00:53.608Z,25.39
2023-04-05T09:03:28.373Z,23.38
2023-04-05T09:05:59.036Z,24.73
2023-04-05T09:08:27.320Z,23.71
2023-04-05T09:10:54.745Z,22.41
2023-04-05T09:13:22.151Z,23.22
2023-04-05T09:15:49.909Z,25.80
2023-04-05T09:18:26.172Z,25.00
2023-04-05T09:21:05.676Z,25.60
2023-04-05T09:23:36.838Z,26.06
2023-04-05T09:26:19.833Z,25.89
2023-04-05T09:28:48.939Z,25.54
2023-04-05T09:31:29.770Z,24.32
2023-04-05T09:34:06.588Z,23.94
2023-04-05T09:36:34.636Z,25.31
2023-04-05T09:39:09.656Z,25.84
2023-04-05T09:41:37.451Z,25.19
2023-04-05T09:44:05.321Z,23.32
2023-04-05T09:46:34.586Z,25.87
2023-04-05T09:49:03.902Z,25.82
2023-04-05T09:51:35.823Z,23.37
2023-04-05T09:54:06.255Z,24.16
2023-04-05T09:56:38.607Z,24.74
2023-04-05T09:59:11.490Z,24.45
2023-04-05T10:01:43.763Z,23.32
2023-04-05T10:04:11.855Z,23.71
2023-04-05T10:06:41.129Z,23.30
2023-04-05T10:09:11.006Z,23.80
2023-04-05T10:11:39.450Z,22.84
2023-04-05T10:14:08.693Z,23.07
2023-04-05T10:16:53.825Z,23.09
2023-04-05T10:19:29.001Z,23.37
2023-04-05T10:21:58.773Z,22.24
2023-04-05T10:24:50.559Z,24.50
2023-04-05T10:27:23.011Z,24.58
2023-04-05T10:29:59.075Z,23.57
2023-04-05T10:32:35.452Z,24.19
2023-04-05T10:35:16.210Z,24.24
2023-04-05T10:38:13.345Z,25.32
2023-04-05T10:40:44.550Z,24.09
2023-04-05T10:43:17.822Z,22.32
2023-04-05T10:45:46.967Z,23.38
2023-04-05T10:48:48.824Z,23.38
2023-04-05T10:51:16.650Z,23.53
2023-04-05T10:53:44.388Z,23.12
2023-04-05T10:56:12.165Z,23.20
2023-04-05T10:58:42.329Z,23.15
2023-04-05T11:01:10.406Z,22.77
2023-04-05T11:03:49.855Z,23.72
2023-04-05T11:06:29.025Z,21.51
2023-04-05T11:09:21.306Z,23.23
2023-04-05T11:11:50.132Z,23.07
2023-04-05T11:14:25.733Z,21.75
2023-04-05T11:16:57.132Z,22.27
2023-04-05T11:19:43.096Z,22.40
2023-04-05T11:22:11.355Z,23.16
2023-04-05T11:24:58.755Z,22.76
2023-04-05T11:27:31.434Z,21.91
2023-04-05T11:30:00.709Z,22.42
2023-04-05T11:32:43.378Z,21.67
2023-04-05T11:35:15.314Z,21.78
2023-04-05T11:38:01.036Z,22.56
2023-04-05T11:40:30.781Z,23.47
2023-04-05T11:43:10.048Z,21.52
2023-04-05T11:45:38.833Z,21.78
2023-04-05T11:48:11.706Z,21.72
2023-04-05T11:50:43.582Z,22.41
2023-04-05T11:53:12.863Z,23.31
2023-04-05T11:55:45.595Z,21.18
2023-04-05T11:58:22.355Z,22.25
2023-04-05T12:01:01.028Z,21.27
2023-04-05T12:03:29.769Z,21.27
2023-04-05T12:05:59.401Z,21.51
2023-04-05T12:08:51.655Z,22.17
2023-04-05T12:11:27.184Z,21.75
2023-04-05T12:13:58.905Z,22.58
2023-04-05T12:16:26.939Z,22.99
2023-04-05T12:18:55.831Z,22.10
2023-04-05T12:21:23.732Z,21.91
2023-04-05T12:23:51.796Z,23.04
2023-04-05T12:26:19.570Z,22.32
2023-04-05T12:29:13.280Z,21.90
2023-04-05T12:31:42.132Z,21.10
2023-04-05T12:34:10.732Z,21.22
2023-04-05T12:36:39.169Z,21.10
2023-04-05T12:39:08.383Z,21.24
2023-04-05T12:41:37.346Z,22.84
2023-04-05T12:44:28.607Z,23.37
2023-04-05T12:47:02.719Z,23.09
2023-04-05T12:49:30.305Z,24.64
2023-04-05T12:52:03.047Z,23.70
2023-04-05T12:54:32.072Z,22.86
2023-04-05T12:57:02.128Z,21.55
2023-04-05T12:59:29.581Z,22.34
2023-04-05T13:01:56.987Z,22.75
2023-04-05T13:04:26.298Z,22.56
2023-04-05T13:06:54.981Z,22.00
2023-04-05T13:09:22.466Z,22.34
2023-04-05T13:11:50.961Z,23.48
2023-04-05T13:14:18.662Z,23.93
2023-04-05T13:16:46.194Z,23.39
2023-04-05T13:19:13.864Z,23.03
2023-04-05T13:21:41.549Z,22.70
2023-04-05T13:24:11.542Z,22.38
2023-04-05T13:26:40.763Z,22.96
2023-04-05T13:29:08.455Z,23.14
2023-04-05T13:31:36.018Z,23.03
2023-04-05T13:34:03.867Z,22.00
2023-04-05T13:36:31.419Z,22.21
2023-04-05T13:38:58.797Z,23.99
2023-04-05T13:41:26.557Z,24.70
2023-04-05T13:43:53.913Z,23.10
2023-04-05T13:46:21.438Z,23.07
2023-04-05T13:48:49.159Z,23.46
2023-04-05T13:51:16.589Z,22.96
2023-04-05T13:53:44.058Z,22.30
2023-04-05T13:56:11.988Z,22.68
2023-04-05T13:58:39.404Z,23.23
2023-04-05T14:01:06.907Z,23.10
2023-04-05T14:03:34.829Z,22.50
2023-04-05T14:06:02.297Z,22.14
2023-04-05T14:08:29.746Z,21.87
2023-04-05T14:10:57.441Z,20.90
2023-04-05T14:13:24.868Z,22.17
2023-04-05T14:15:52.586Z,23.04
2023-04-05T14:18:20.659Z,22.59
2023-04-05T14:20:48.064Z,21.51
2023-04-05T14:23:15.538Z,21.25
2023-04-05T14:25:43.361Z,21.08
2023-04-05T14:28:11.189Z,20.84
2023-04-05T14:30:38.702Z,20.22
2023-04-05T14:33:06.624Z,19.71
2023-04-05T14:35:34.071Z,20.56
2023-04-05T14:38:01.539Z,20.49
2023-04-05T14:40:29.474Z,21.61
2023-04-05T14:42:56.951Z,20.59
2023-04-05T14:45:27.270Z,21.48
2023-04-05T14:47:55.958Z,20.34
2023-04-05T14:50:23.439Z,20.05
2023-04-05T14:52:52.939Z,20.92
2023-04-05T14:55:20.778Z,21.59
2023-04-05T14:57:48.181Z,20.45
2023-04-05T15:00:16.223Z,19.91
2023-04-05T15:02:45.187Z,18.93
2023-04-05T15:05:12.803Z,20.19
2023-04-05T15:07:40.237Z,19.44
2023-04-05T15:10:08.241Z,20.48
2023-04-05T15:12:35.745Z,20.52
2023-04-05T15:15:03.550Z,19.76
2023-04-05T15:17:31.502Z,19.74
2023-04-05T15:19:58.918Z,20.27
2023-04-05T15:22:26.429Z,21.81
2023-04-05T15:24:55.530Z,20.25
2023-04-05T15:27:22.998Z,20.44
2023-04-05T15:29:50.523Z,19.53
2023-04-05T15:32:18.196Z,21.05
2023-04-05T15:34:46.160Z,19.27
2023-04-05T15:37:13.710Z,19.31
2023-04-05T15:39:41.380Z,20.29
2023-04-05T15:42:08.888Z,19.92
2023-04-05T15:44:36.385Z,20.92
2023-04-05T15:47:04.197Z,20.63
2023-04-05T15:49:31.581Z,18.66
2023-04-05T15:52:00.187Z,18.56
2023-04-05T15:54:27.888Z,20.52
2023-04-05T15:56:55.439Z,18.96
2023-04-05T15:59:22.991Z,19.02
2023-04-05T16:01:51.101Z,19.70
2023-04-05T16:04:18.904Z,18.38
2023-04-05T16:06:46.497Z,18.20
2023-04-05T16:09:13.947Z,18.31
2023-04-05T16:11:41.666Z,20.55
2023-04-05T16:14:11.345Z,18.95
2023-04-05T16:16:50.498Z,18.71
2023-04-05T16:19:21.202Z,21.12
2023-04-05T16:21:49.481Z,19.27
2023-04-05T16:24:16.994Z,19.52
2023-04-05T16:26:44.720Z,20.68
2023-04-05T16:29:12.279Z,19.98
2023-04-05T16:31:39.754Z,20.13
2023-04-05T16:34:08.177Z,19.31
2023-04-05T16:36:35.671Z,19.86
2023-04-05T16:39:03.362Z,19.38
2023-04-05T16:41:31.280Z,19.95
2023-04-05T16:43:58.719Z,22.37
2023-04-05T16:46:26.518Z,21.03
2023-04-05T16:48:54.413Z,21.11
2023-04-05T16:51:21.901Z,21.05
2023-04-05T16:53:49.628Z,20.57
2023-04-05T16:56:17.418Z,21.70
2023-04-05T16:58:44.918Z,20.71
2023-04-05T17:01:12.399Z,20.52
2023-04-05T17:03:42.161Z,20.46
2023-04-05T17:06:11.128Z,20.71
2023-04-05T17:08:38.602Z,20.42
2023-04-05T17:11:06.707Z,20.01
2023-04-05T17:13:34.233Z,19.84
2023-04-05T17:16:01.914Z,19.70
2023-04-05T17:18:29.771Z,20.34
2023-04-05T17:20:57.221Z,20.48
2023-04-05T17:23:25.602Z,20.77
2023-04-05T17:25:53.305Z,20.84
2023-04-05T17:28:20.824Z,20.86
2023-04-05T17:30:48.271Z,20.90
2023-04-05T17:33:16.037Z,20.74
2023-04-05T17:35:43.632Z,20.95
2023-04-05T17:38:11.661Z,21.04
2023-04-05T17:40:39.405Z,21.78
2023-04-05T17:43:06.970Z,21.87
2023-04-05T17:45:34.415Z,22.12
2023-04-05T17:48:02.294Z,21.93
2023-04-05T17:50:29.898Z,22.38
2023-04-05T17:52:58.111Z,22.36
2023-04-05T17:55:25.864Z,22.37
2023-04-05T17:57:53.314Z,22.32
2023-04-05T18:00:21.121Z,22.36
2023-04-05T18:02:51.637Z,22.34
2023-04-05T18:05:19.504Z,22.52
2023-04-05T18:07:46.937Z,22.83
2023-04-05T18:10:14.709Z,23.12
2023-04-05T18:12:42.171Z,23.32
2023-04-05T18:15:10.023Z,23.18
2023-04-05T18:17:37.970Z,23.27
2023-04-05T18:20:06.135Z,23.88
2023-04-05T18:22:33.902Z,24.62
2023-04-05T18:25:01.822Z,25.52
2023-04-05T18:27:29.304Z,26.14
2023-04-05T18:29:56.773Z,25.74
2023-04-05T18:32:24.552Z,26.16
2023-04-05T18:34:52.256Z,26.10
2023-04-05T18:37:19.646Z,26.80
2023-04-05T18:39:47.496Z,26.62
2023-04-05T18:42:14.901Z,26.58
2023-04-05T18:44:42.332Z,26.29
2023-04-05T18:47:10.164Z,26.66
2023-04-05T18:49:37.627Z,26.83
2023-04-05T18:52:05.322Z,27.07
2023-04-05T18:54:33.000Z,26.97
2023-04-05T18:57:00.653Z,27.50
2023-04-05T18:59:29.435Z,28.06
2023-04-05T19:01:57.603Z,27.47
2023-04-05T19:04:25.038Z,27.52
2023-04-05T19:06:52.484Z,27.90
2023-04-05T19:09:22.199Z,28.14
2023-04-05T19:11:49.996Z,28.46
2023-04-05T19:14:18.638Z,29.53
2023-04-05T19:16:46.405Z,29.29
2023-04-05T19:19:13.878Z,28.46
2023-04-05T19:21:41.468Z,27.87
2023-04-05T19:24:09.999Z,28.55
2023-04-05T19:26:38.052Z,27.57
2023-04-05T19:29:06.222Z,28.56
2023-04-05T19:31:35.807Z,27.85
2023-04-05T19:34:06.364Z,27.36
2023-04-05T19:36:37.853Z,28.11
2023-04-05T19:39:06.748Z,27.83
2023-04-05T19:41:34.746Z,27.55
2023-04-05T19:44:08.370Z,28.02
2023-04-05T19:46:39.765Z,27.75
2023-04-05T19:49:12.212Z,27.74
2023-04-05T19:51:41.500Z,28.18
2023-04-05T19:54:11.959Z,28.78
2023-04-05T19:56:40.664Z,28.61
2023-04-05T19:59:17.403Z,28.76
2023-04-05T20:01:47.499Z,28.72
2023-04-05T20:04:17.497Z,29.17
2023-04-05T20:06:52.822Z,28.64
2023-04-05T20:09:25.507Z,28.54
2023-04-05T20:12:03.883Z,28.49
2023-04-05T20:14:46.442Z,28.16
2023-04-05T20:17:16.018Z,28.22
2023-04-05T20:20:01.111Z,28.46
2023-04-05T20:22:29.233Z,28.40
2023-04-05T20:24:57.161Z,28.02
2023-04-05T20:27:24.631Z,30.24
2023-04-05T20:29:52.478Z,29.10
2023-04-05T20:32:20.886Z,28.86
2023-04-05T20:34:48.452Z,28.57
2023-04-05T20:37:15.901Z,28.98
2023-04-05T20:39:43.579Z,28.53
2023-04-05T20:42:11.529Z,28.67
2023-04-05T20:44:38.977Z,28.52
2023-04-05T20:47:06.778Z,28.26
2023-04-05T20:49:34.448Z,27.98
2023-04-05T20:52:07.546Z,27.18
2023-04-05T20:54:35.926Z,27.42
2023-04-05T20:57:03.464Z,27.04
2023-04-05T20:59:31.495Z,26.81
2023-04-05T21:01:59.960Z,27.35
2023-04-05T21:04:30.002Z,27.78
2023-04-05T21:06:58.603Z,28.19
2023-04-05T21:09:27.743Z,27.31
2023-04-05T21:11:55.262Z,27.51
2023-04-05T21:14:22.711Z,27.17
2023-04-05T21:16:50.857Z,27.41
2023-04-05T21:19:18.808Z,27.74
2023-04-05T21:21:48.028Z,27.87
2023-04-05T21:24:17.167Z,27.73
2023-04-05T21:26:45.027Z,27.80
2023-04-05T21:29:14.116Z,28.74
2023-04-05T21:31:42.019Z,28.19
2023-04-05T21:34:09.506Z,27.95
2023-04-05T21:36:36.979Z,27.83
2023-04-05T21:39:04.721Z,27.65
2023-04-05T21:41:32.124Z,27.67
2023-04-05T21:43:59.562Z,28.52
2023-04-05T21:46:27.751Z,27.91
2023-04-05T21:48:55.461Z,27.81
2023-04-05T21:51:22.889Z,27.88
2023-04-05T21:53:50.774Z,27.52
2023-04-05T21:56:19.136Z,27.71
2023-04-05T21:58:46.568Z,27.60
2023-04-05T22:01:14.352Z,27.88
2023-04-05T22:03:42.064Z,28.09
2023-04-05T22:06:09.607Z,27.76
2023-04-05T22:08:37.117Z,27.69
2023-04-05T22:11:04.914Z,27.62
2023-04-05T22:13:32.317Z,27.76
2023-04-05T22:15:59.796Z,27.79
2023-04-05T22:18:28.988Z,28.19
2023-04-05T22:20:56.538Z,28.57
2023-04-05T22:23:23.956Z,29.35
2023-04-05T22:25:53.210Z,29.90
2023-04-05T22:28:21.677Z,29.91
2023-04-05T22:30:49.706Z,29.52
2023-04-05T22:33:17.418Z,29.64
2023-04-05T22:35:44.853Z,30.34
2023-04-05T22:38:12.280Z,30.12
2023-04-05T22:40:40.017Z,30.57
2023-04-05T22:43:07.603Z,30.53
2023-04-05T22:45:35.163Z,31.50
2023-04-05T22:48:03.026Z,30.80
2023-04-05T22:50:30.947Z,30.46
2023-04-05T22:52:58.699Z,31.46
2023-04-05T22:55:26.405Z,31.08
2023-04-05T22:57:53.831Z,30.91
2023-04-05T23:00:21.582Z,31.18
2023-04-05T23:02:49.317Z,31.66
2023-04-05T23:05:16.786Z,31.82
2023-04-05T23:07:44.386Z,31.67
2023-04-05T23:10:12.347Z,31.99
2023-04-05T23:12:39.779Z,32.00
2023-04-05T23:15:07.500Z,32.24
2023-04-05T23:17:35.198Z,32.11
2023-04-05T23:20:05.820Z,32.19
2023-04-05T23:22:34.940Z,31.77
2023-04-05T23:25:04.263Z,31.37
2023-04-05T23:27:31.993Z,31.63
2023-04-05T23:29:59.456Z,31.66
2023-04-05T23:32:27.200Z,31.60
2023-04-05T23:34:54.725Z,31.86
2023-04-05T23:37:22.162Z,32.07
2023-04-05T23:39:49.837Z,31.62
2023-04-05T23:42:17.448Z,31.97
2023-04-05T23:44:44.925Z,32.94
2023-04-05T23:47:12.909Z,32.21
2023-04-05T23:49:40.551Z,32.23
2023-04-05T23:52:07.996Z,32.11
2023-04-05T23:54:35.688Z,32.66
2023-04-05T23:57:03.071Z,32.32
2023-04-05T23:59:30.970Z,31.96
